Tel Aviv, Israel

11:31 AM IDT on July 26, 2016 (GMT +0300)
Ben-Shemen | | Change Station

Elev 197 ft 31.95 °N, 34.92 °E | Updated 1 minute ago

Clear
Clear
95.2 °F
Feels Like 116 °F
N
6.0
Wind Variable Wind from NW
Gusts 8.3 mph

Today
High -- | Low -- °F
--% Chance of Precip.
Yesterday
High -- | Low -- °F
Precip. -- in
Pressure 29.74 in
Visibility -9999.0 miles
Clouds
Heat Index 116 °F
Dew Point 81 °F
Humidity 63%
Rainfall 0.00 in
Snow Depth Not available.
5:51 AM 7:41 PM
Waning Gibbous, 57% visible
METAR LLBG 260820Z 24006KT CAVOK 32/21 Q1007 NOSIG
Pressure 29.74 in
Visibility -9999.0 miles
Clouds
Heat Index 116 °F
Dew Point 81 °F
Humidity 63%
Rainfall 0.00 in
Snow Depth Not available.
5:51 AM 7:41 PM
Waning Gibbous, 57% visible
METAR LLBG 260820Z 24006KT CAVOK 32/21 Q1007 NOSIG

10-Day Weather Forecast

No radar image for this location.
×

Almanac

Astronomy

Jul. 26, 2016 Rise Set
Actual Time
Civil Twilight
Nautical Twilight
Astronomical Twilight
Moon
Length of Visible Light
Length of Day
Tomorrow will be .
, % of the Moon is Illuminated

Today's Extremes

Country Highs Country Lows

Community

WunderPhotos

Upload Photos

1,927,556 photos uploaded!

WunderBlog® & News

Nearby

Air Quality

  Air Quality AQ Index Pollutant
Not available.

Snow Depth

Station Depth Elevation

Earthquake Activity

City Distance Mag. Time & Date
Minimum magnitude displayed is 2.5.

Coastal Water Temperatures

Place Temperature

Stations

Nearby Weather Stations

Station Location Temp. Windchill Dew Point Humidity Wind Precip. Elev Updated Type